Forside
METAR-TAF:

METAR-TAF

Lufthavne :

Baraboo Wisconsin Dells Airport

Baraboo / Wisconsin Dells, Wisconsin, USA

Breddekreds: 43-31-19N, længdekreds: 089-46-15W, højde: 298 m

Aktuelle vejr

Denne rapport blev lavet for 25 minutter siden, kl. 12:15 UTC
Vind 8 kt fra sydsydøst
Temperatur 0°C
Fugtighed 93%
Tryk 1021 hPa
Sigt: 11.3 km
Brudte skyer i en højde af 1400 ft
Brudte skyer i en højde af 3400 ft
Overskyet i en højde af 4800 ft
let sne

METAR: KDLL 241215Z AUTO 16008KT 7SM -SN BKN014 BKN034 OVC048 00/M01 A3015 RMK AO2 T00001015

Tid: 06:40 (12:40 UTC)


TAF: fraværende

Vejrobservationer og prognoser fra mere end 4000 lufthavne (METAR og TAF).

De gule og røde prikker repræsenterer de meteorologiske stationer.

Flyt musen over at se navnet på stationen.

Så klik over at se vejr observationer og prognoser.

At skifte det kort: Klik på de grønne knapper med et sort kors for at zoome ind; på den grønne knap med en bindestreg for at zoome ud; eller på de grønne pile for tilstødende kort.


METAR-TAF: